Time;durP1;ratioP1;P1;durP2;ratioP2;P2;SDS_P1;SDS_P2;PMS_P1;PMS_P2;Temp;Humidity;BMP_temperature;BMP_pressure;BME280_temperature;BME280_humidity;BME280_pressure;Samples;Min_cycle;Max_cycle;Signal;HPM_P1;HPM_P2
2022/01/14 00:00:25;;;;;;;16.23;11.40;;;;;;;;;;5061050;28;20172;-56
2022/01/14 00:02:51;;;;;;;13.60;10.17;;;;;;;;;;5066104;28;20185;-57
2022/01/14 00:05:17;;;;;;;12.07;9.57;;;;;;;;;;5057342;28;20596;-57
2022/01/14 00:07:43;;;;;;;16.30;10.73;;;;;;;;;;5064986;28;20181;-56
2022/01/14 00:10:10;;;;;;;12.97;9.67;;;;;;;;;;5053798;28;20635;-56
2022/01/14 00:12:40;;;;;;;14.53;10.73;;;;;;;;;;5061716;28;20183;-57
2022/01/14 00:15:24;;;;;;;12.80;10.37;;;;;;;;;;5057337;28;20544;-56
2022/01/14 00:17:51;;;;;;;11.23;9.17;;;;;;;;;;5063469;28;20627;-55
2022/01/14 00:20:17;;;;;;;13.33;10.57;;;;;;;;;;5065033;28;20423;-56
2022/01/14 00:22:43;;;;;;;13.50;10.77;;;;;;;;;;5065967;28;20180;-56
2022/01/14 00:33:12;;;;;;;12.80;10.37;;;;;;;;;;5016328;28;20434;-58
2022/01/14 00:35:42;;;;;;;14.63;10.93;;;;;;;;;;5047446;28;20442;-56
2022/01/14 00:38:08;;;;;;;13.63;10.60;;;;;;;;;;5065393;28;20419;-57
2022/01/14 00:40:35;;;;;;;13.53;10.07;;;;;;;;;;5058564;28;20960;-59
2022/01/14 00:43:01;;;;;;;13.23;9.80;;;;;;;;;;5062590;28;20771;-58
2022/01/14 00:45:27;;;;;;;12.07;9.67;;;;;;;;;;5061284;28;20208;-56
2022/01/14 00:47:53;;;;;;;14.23;9.70;;;;;;;;;;5065204;28;20964;-58
2022/01/14 00:50:19;;;;;;;11.73;9.60;;;;;;;;;;5060954;28;20661;-57
2022/01/14 00:52:46;;;;;;;13.20;9.70;;;;;;;;;;5058927;28;20184;-58
2022/01/14 00:55:15;;;;;;;15.13;10.10;;;;;;;;;;5065313;28;20175;-56
2022/01/14 01:00:33;;;;;;;13.37;9.40;;;;;;;;;;5068390;28;20186;-57
2022/01/14 01:02:59;;;;;;;14.00;10.30;;;;;;;;;;5068455;28;20184;-56
2022/01/14 01:05:25;;;;;;;12.33;10.00;;;;;;;;;;5068521;28;20255;-58
2022/01/14 01:08:19;;;;;;;12.10;9.27;;;;;;;;;;5051426;28;20415;-56
2022/01/14 01:10:48;;;;;;;12.77;9.73;;;;;;;;;;5067352;28;20500;-56
2022/01/14 01:13:21;;;;;;;12.30;9.90;;;;;;;;;;5051577;28;20176;-57
2022/01/14 01:15:49;;;;;;;11.17;8.67;;;;;;;;;;5067342;28;20468;-56
2022/01/14 01:18:15;;;;;;;13.13;9.77;;;;;;;;;;5068386;28;20904;-59
2022/01/14 01:20:41;;;;;;;14.73;10.37;;;;;;;;;;5067979;28;20933;-58
2022/01/14 01:23:07;;;;;;;14.50;9.47;;;;;;;;;;5044296;28;20939;-57
2022/01/14 01:25:40;;;;;;;12.90;9.63;;;;;;;;;;5063417;28;20185;-57
2022/01/14 01:28:06;;;;;;;11.77;9.60;;;;;;;;;;5050493;28;20519;-56
2022/01/14 01:32:59;;;;;;;11.13;9.53;;;;;;;;;;5068897;28;20185;-58
2022/01/14 01:35:26;;;;;;;12.70;9.53;;;;;;;;;;5068935;28;20172;-60
2022/01/14 01:37:52;;;;;;;10.80;8.67;;;;;;;;;;5050104;28;20430;-57
2022/01/14 01:40:20;;;;;;;10.90;8.47;;;;;;;;;;5068385;28;20480;-56
2022/01/14 01:42:46;;;;;;;10.73;8.83;;;;;;;;;;5067916;28;20696;-57
2022/01/14 01:45:15;;;;;;;12.80;9.13;;;;;;;;;;5068378;28;20631;-56
2022/01/14 01:47:44;;;;;;;13.77;8.97;;;;;;;;;;5066115;28;20267;-57
2022/01/14 01:50:11;;;;;;;11.00;8.33;;;;;;;;;;5067703;28;20450;-57
2022/01/14 01:52:37;;;;;;;14.43;9.60;;;;;;;;;;5060572;28;20192;-56
2022/01/14 01:55:04;;;;;;;12.20;9.30;;;;;;;;;;5067899;28;20458;-57
2022/01/14 01:57:30;;;;;;;11.47;8.40;;;;;;;;;;5069323;28;20204;-57
2022/01/14 01:59:56;;;;;;;13.23;9.80;;;;;;;;;;5065160;28;20901;-57
2022/01/14 02:02:22;;;;;;;12.33;9.10;;;;;;;;;;5067838;28;20221;-57
2022/01/14 02:04:48;;;;;;;8.97;7.80;;;;;;;;;;5068741;28;20180;-56
2022/01/14 02:07:15;;;;;;;12.00;8.80;;;;;;;;;;5054641;28;20322;-57
2022/01/14 02:09:41;;;;;;;10.40;8.30;;;;;;;;;;5067965;28;21393;-56
2022/01/14 02:12:11;;;;;;;10.80;8.73;;;;;;;;;;5064289;28;20185;-58
2022/01/14 02:22:45;;;;;;;11.07;8.97;;;;;;;;;;5067025;28;20393;-56
2022/01/14 02:25:12;;;;;;;9.83;8.27;;;;;;;;;;5064066;28;20943;-58
2022/01/14 02:27:38;;;;;;;9.97;8.00;;;;;;;;;;5067820;28;20183;-58
2022/01/14 02:30:05;;;;;;;8.93;7.33;;;;;;;;;;5066620;28;20646;-56
2022/01/14 02:32:31;;;;;;;12.27;7.90;;;;;;;;;;5049130;28;20431;-57
2022/01/14 02:34:57;;;;;;;9.13;7.67;;;;;;;;;;5067113;28;20201;-57
2022/01/14 02:37:23;;;;;;;10.17;7.23;;;;;;;;;;5067033;28;20587;-56
2022/01/14 02:39:49;;;;;;;12.00;8.70;;;;;;;;;;5049341;28;20283;-59
2022/01/14 02:42:15;;;;;;;10.60;8.40;;;;;;;;;;5067239;28;20654;-57
2022/01/14 02:44:41;;;;;;;12.30;8.90;;;;;;;;;;5062570;28;20195;-57
2022/01/14 02:47:07;;;;;;;10.47;7.67;;;;;;;;;;5066845;28;20180;-57
2022/01/14 02:49:36;;;;;;;10.80;7.97;;;;;;;;;;5049684;28;20462;-56
2022/01/14 02:52:04;;;;;;;9.23;7.53;;;;;;;;;;5065860;28;20516;-58
2022/01/14 02:54:39;;;;;;;11.93;8.87;;;;;;;;;;5044354;28;20226;-57
2022/01/14 02:57:06;;;;;;;11.60;8.53;;;;;;;;;;5077534;28;20220;-58
2022/01/14 02:59:33;;;;;;;10.07;7.80;;;;;;;;;;5082357;28;20475;-58
2022/01/14 03:02:02;;;;;;;10.60;7.90;;;;;;;;;;5083794;28;20690;-57
2022/01/14 03:04:28;;;;;;;10.17;7.70;;;;;;;;;;5086071;28;20864;-57
2022/01/14 03:06:55;;;;;;;10.40;8.33;;;;;;;;;;5084998;28;20635;-56
2022/01/14 03:09:21;;;;;;;11.53;8.40;;;;;;;;;;5086095;28;20449;-57
2022/01/14 03:11:49;;;;;;;13.10;8.43;;;;;;;;;;5083368;28;20805;-56
2022/01/14 03:14:23;;;;;;;9.47;7.60;;;;;;;;;;5078240;28;20893;-57
2022/01/14 03:16:50;;;;;;;10.60;8.33;;;;;;;;;;5084745;28;20492;-57
2022/01/14 03:19:21;;;;;;;10.97;8.03;;;;;;;;;;5083831;28;20453;-57
2022/01/14 03:21:50;;;;;;;12.20;7.80;;;;;;;;;;5067452;28;20430;-58
2022/01/14 03:24:20;;;;;;;12.33;8.13;;;;;;;;;;5083131;28;20567;-57
2022/01/14 03:26:47;;;;;;;12.40;8.73;;;;;;;;;;5067220;28;20417;-56
2022/01/14 03:29:14;;;;;;;9.53;7.03;;;;;;;;;;5086013;28;20454;-57
2022/01/14 03:31:41;;;;;;;10.50;7.87;;;;;;;;;;5083796;28;20410;-59
2022/01/14 03:34:07;;;;;;;11.03;9.30;;;;;;;;;;5083275;28;20430;-57
2022/01/14 03:36:33;;;;;;;11.90;9.17;;;;;;;;;;5084853;28;20421;-57
2022/01/14 03:39:00;;;;;;;10.83;8.47;;;;;;;;;;5082554;28;20845;-56
2022/01/14 03:41:26;;;;;;;11.33;8.43;;;;;;;;;;5085407;28;20421;-59
2022/01/14 03:43:52;;;;;;;13.10;8.90;;;;;;;;;;5083132;28;20414;-56
2022/01/14 03:46:18;;;;;;;11.93;8.33;;;;;;;;;;5084293;28;20176;-57
2022/01/14 03:48:44;;;;;;;12.63;9.07;;;;;;;;;;5085914;28;20457;-59
2022/01/14 03:51:12;;;;;;;12.00;9.17;;;;;;;;;;5083371;28;20413;-57
2022/01/14 03:53:38;;;;;;;11.33;8.33;;;;;;;;;;5079128;28;20458;-57
2022/01/14 03:56:04;;;;;;;11.73;8.77;;;;;;;;;;5076161;28;20450;-57
2022/01/14 03:58:30;;;;;;;11.57;8.60;;;;;;;;;;5073981;28;20993;-56
2022/01/14 04:00:56;;;;;;;11.50;8.80;;;;;;;;;;5079988;28;20444;-56
2022/01/14 04:03:22;;;;;;;10.30;8.80;;;;;;;;;;5066186;28;20430;-56
2022/01/14 04:05:48;;;;;;;10.27;8.33;;;;;;;;;;5070340;28;20422;-58
2022/01/14 04:08:14;;;;;;;11.33;8.47;;;;;;;;;;5073313;28;20415;-58
2022/01/14 04:10:41;;;;;;;11.00;7.60;;;;;;;;;;5065938;28;20818;-57
2022/01/14 04:13:17;;;;;;;10.10;8.07;;;;;;;;;;5066742;28;20804;-56
2022/01/14 04:15:46;;;;;;;9.33;8.30;;;;;;;;;;5064560;28;20415;-59
2022/01/14 04:18:15;;;;;;;9.00;7.50;;;;;;;;;;5068855;28;20410;-57
2022/01/14 04:20:41;;;;;;;12.73;8.90;;;;;;;;;;5065764;28;20491;-57
2022/01/14 04:23:08;;;;;;;10.73;7.53;;;;;;;;;;5069397;28;20419;-58
2022/01/14 04:25:34;;;;;;;9.97;8.40;;;;;;;;;;5074925;28;20944;-58
2022/01/14 04:28:01;;;;;;;11.83;8.13;;;;;;;;;;5067445;28;20949;-57
2022/01/14 04:30:27;;;;;;;10.80;8.20;;;;;;;;;;5071512;28;20466;-57
2022/01/14 04:32:53;;;;;;;11.23;7.87;;;;;;;;;;5071622;28;21229;-57
2022/01/14 04:35:19;;;;;;;11.17;8.70;;;;;;;;;;5067839;28;20476;-56
2022/01/14 04:37:45;;;;;;;11.20;8.03;;;;;;;;;;5066821;28;20427;-58
2022/01/14 04:40:15;;;;;;;11.37;8.27;;;;;;;;;;5057162;28;20421;-58
2022/01/14 04:42:43;;;;;;;11.33;8.37;;;;;;;;;;5057177;28;20423;-58
2022/01/14 04:45:10;;;;;;;11.43;8.20;;;;;;;;;;5067692;28;20422;-58
2022/01/14 04:47:45;;;;;;;9.83;7.87;;;;;;;;;;5067706;28;20419;-58
2022/01/14 04:50:12;;;;;;;11.07;8.30;;;;;;;;;;5074262;28;20794;-58
2022/01/14 04:52:39;;;;;;;12.03;8.83;;;;;;;;;;5070217;28;20506;-57
2022/01/14 04:55:06;;;;;;;11.40;8.67;;;;;;;;;;5054674;28;20808;-58
2022/01/14 04:57:33;;;;;;;8.77;7.83;;;;;;;;;;5066615;28;20457;-57
2022/01/14 04:59:59;;;;;;;11.30;8.40;;;;;;;;;;5064628;28;21349;-58
2022/01/14 05:02:26;;;;;;;12.40;9.30;;;;;;;;;;5049899;28;20800;-59
2022/01/14 05:04:54;;;;;;;10.93;9.00;;;;;;;;;;5063452;28;20766;-58
2022/01/14 05:07:26;;;;;;;10.27;8.07;;;;;;;;;;5065782;28;20429;-56
2022/01/14 05:10:08;;;;;;;11.77;8.47;;;;;;;;;;5055743;28;20464;-58
2022/01/14 05:12:35;;;;;;;9.57;8.03;;;;;;;;;;5057897;28;20412;-57
2022/01/14 05:15:02;;;;;;;11.50;8.70;;;;;;;;;;5061182;28;20418;-58
2022/01/14 05:17:28;;;;;;;9.40;8.07;;;;;;;;;;5061125;28;20511;-57
2022/01/14 05:19:54;;;;;;;11.43;8.60;;;;;;;;;;5064777;28;20477;-58
2022/01/14 05:22:21;;;;;;;10.97;8.30;;;;;;;;;;5064092;28;20453;-58
2022/01/14 05:24:47;;;;;;;11.87;8.13;;;;;;;;;;5065384;28;20929;-56
2022/01/14 05:27:13;;;;;;;13.17;9.77;;;;;;;;;;5066539;28;20450;-57
2022/01/14 05:29:40;;;;;;;10.90;8.27;;;;;;;;;;5063172;28;20474;-59
2022/01/14 05:32:09;;;;;;;11.43;8.77;;;;;;;;;;5066551;28;20507;-58
2022/01/14 05:34:36;;;;;;;13.13;9.00;;;;;;;;;;5059879;28;20651;-59
2022/01/14 05:37:03;;;;;;;10.97;8.33;;;;;;;;;;5056563;28;20509;-56
2022/01/14 05:39:30;;;;;;;10.50;8.40;;;;;;;;;;5063518;28;20457;-58
2022/01/14 05:41:56;;;;;;;12.03;8.87;;;;;;;;;;5057172;28;20431;-58
2022/01/14 05:44:26;;;;;;;16.03;8.27;;;;;;;;;;5069791;28;20418;-56
2022/01/14 05:46:52;;;;;;;13.47;9.17;;;;;;;;;;5059617;28;20425;-57
2022/01/14 05:49:18;;;;;;;12.77;8.83;;;;;;;;;;5069965;28;20586;-57
2022/01/14 05:51:45;;;;;;;11.47;8.93;;;;;;;;;;5063995;28;20427;-58
2022/01/14 05:54:11;;;;;;;12.40;8.27;;;;;;;;;;5063983;28;20425;-57
2022/01/14 05:56:37;;;;;;;12.17;9.07;;;;;;;;;;5072392;28;20516;-57
2022/01/14 05:59:04;;;;;;;10.27;8.10;;;;;;;;;;5069538;28;20890;-57
2022/01/14 06:01:33;;;;;;;14.70;7.93;;;;;;;;;;5067182;28;21103;-59
2022/01/14 06:03:59;;;;;;;11.30;8.33;;;;;;;;;;5068725;28;20897;-57
2022/01/14 06:06:26;;;;;;;13.57;8.50;;;;;;;;;;5062980;28;20860;-57
2022/01/14 06:08:52;;;;;;;11.73;8.93;;;;;;;;;;5061149;28;20539;-56
2022/01/14 06:11:18;;;;;;;11.60;9.07;;;;;;;;;;5065150;28;20938;-56
2022/01/14 06:13:45;;;;;;;13.90;9.00;;;;;;;;;;5068037;28;20975;-56
2022/01/14 06:16:11;;;;;;;11.87;7.77;;;;;;;;;;5068117;28;20566;-57
2022/01/14 06:18:37;;;;;;;11.53;8.47;;;;;;;;;;5068095;28;20552;-57
2022/01/14 06:21:04;;;;;;;10.70;7.97;;;;;;;;;;5068895;28;20173;-56
2022/01/14 06:23:30;;;;;;;12.30;9.17;;;;;;;;;;5067753;28;20973;-58
2022/01/14 06:25:56;;;;;;;13.30;9.13;;;;;;;;;;5068611;28;20849;-56
2022/01/14 06:28:22;;;;;;;12.83;9.70;;;;;;;;;;5068097;28;20975;-57
2022/01/14 06:30:48;;;;;;;10.80;8.47;;;;;;;;;;5067713;28;20462;-57
2022/01/14 06:33:14;;;;;;;12.17;8.80;;;;;;;;;;5068577;28;20472;-56
2022/01/14 06:35:40;;;;;;;12.13;8.90;;;;;;;;;;5067964;28;20446;-59
2022/01/14 06:38:06;;;;;;;14.97;10.00;;;;;;;;;;5067792;28;20944;-57
2022/01/14 06:40:33;;;;;;;13.90;9.27;;;;;;;;;;5063607;28;20419;-57
2022/01/14 06:42:59;;;;;;;12.83;9.33;;;;;;;;;;5050363;28;20208;-58
2022/01/14 06:45:25;;;;;;;12.90;9.57;;;;;;;;;;5066228;28;20453;-59
2022/01/14 06:47:51;;;;;;;15.13;9.67;;;;;;;;;;5066832;28;20310;-56
2022/01/14 06:50:18;;;;;;;15.17;9.80;;;;;;;;;;5068108;28;20465;-57
2022/01/14 06:52:44;;;;;;;14.63;9.90;;;;;;;;;;5067054;28;20430;-56
2022/01/14 06:55:10;;;;;;;13.57;9.83;;;;;;;;;;5068611;28;20430;-58
2022/01/14 06:57:37;;;;;;;13.70;9.70;;;;;;;;;;5086786;28;21011;-57
2022/01/14 07:00:04;;;;;;;15.43;10.53;;;;;;;;;;5043347;28;20431;-57
2022/01/14 07:02:31;;;;;;;14.30;10.90;;;;;;;;;;5087214;28;20426;-56
2022/01/14 07:04:57;;;;;;;14.20;9.90;;;;;;;;;;5068635;28;20433;-58
2022/01/14 07:07:23;;;;;;;13.53;9.83;;;;;;;;;;5079545;28;20752;-57
2022/01/14 07:09:58;;;;;;;15.03;9.93;;;;;;;;;;5061712;28;20264;-56
2022/01/14 07:12:27;;;;;;;11.17;9.13;;;;;;;;;;5086500;28;20481;-57
2022/01/14 07:14:54;;;;;;;14.17;10.33;;;;;;;;;;5063165;28;20406;-56
2022/01/14 07:17:21;;;;;;;15.03;10.53;;;;;;;;;;5084615;28;20418;-57
2022/01/14 07:19:49;;;;;;;13.57;9.87;;;;;;;;;;5075684;28;20977;-58
2022/01/14 07:22:15;;;;;;;14.13;10.60;;;;;;;;;;5084289;28;20414;-57
2022/01/14 07:24:41;;;;;;;17.67;9.67;;;;;;;;;;5087822;28;21010;-57
2022/01/14 07:27:07;;;;;;;14.00;10.40;;;;;;;;;;5087343;28;20421;-56
2022/01/14 07:29:33;;;;;;;14.60;10.40;;;;;;;;;;5079065;28;20917;-57
2022/01/14 07:31:59;;;;;;;12.23;9.57;;;;;;;;;;5079712;28;20418;-56
2022/01/14 07:34:26;;;;;;;13.57;10.13;;;;;;;;;;5085993;28;20449;-56
2022/01/14 07:36:52;;;;;;;18.03;11.07;;;;;;;;;;5078536;28;20482;-58
2022/01/14 07:39:19;;;;;;;14.80;10.63;;;;;;;;;;5085223;28;20449;-59
2022/01/14 07:41:46;;;;;;;13.70;10.43;;;;;;;;;;5086541;28;20410;-57
2022/01/14 07:44:12;;;;;;;15.53;11.27;;;;;;;;;;5083159;28;20913;-57
2022/01/14 07:46:39;;;;;;;15.40;10.93;;;;;;;;;;5083695;28;20418;-58
2022/01/14 07:49:05;;;;;;;13.63;10.37;;;;;;;;;;5087133;28;20313;-56
2022/01/14 07:51:31;;;;;;;14.07;10.43;;;;;;;;;;5086338;28;20421;-58
2022/01/14 07:53:57;;;;;;;17.10;11.00;;;;;;;;;;5075071;28;20419;-58
2022/01/14 07:56:24;;;;;;;16.27;11.00;;;;;;;;;;5082973;28;20463;-57
2022/01/14 07:58:50;;;;;;;14.17;10.10;;;;;;;;;;5072001;28;20449;-58
2022/01/14 08:01:16;;;;;;;17.27;11.00;;;;;;;;;;5066507;28;20894;-56
2022/01/14 08:03:42;;;;;;;12.77;10.53;;;;;;;;;;5071154;28;20433;-58
2022/01/14 08:06:10;;;;;;;13.03;10.57;;;;;;;;;;5049670;28;20419;-56
2022/01/14 08:08:38;;;;;;;15.27;10.80;;;;;;;;;;5056539;28;21173;-57
2022/01/14 08:11:05;;;;;;;17.77;11.03;;;;;;;;;;5074770;28;20521;-57
2022/01/14 08:13:31;;;;;;;16.60;10.30;;;;;;;;;;5080522;28;20492;-57
2022/01/14 08:15:59;;;;;;;15.43;10.83;;;;;;;;;;5069137;28;20444;-59
2022/01/14 08:18:25;;;;;;;15.13;11.53;;;;;;;;;;5081202;28;20961;-57
2022/01/14 08:20:52;;;;;;;17.33;11.80;;;;;;;;;;5064072;28;20486;-57
2022/01/14 08:23:19;;;;;;;14.90;11.20;;;;;;;;;;5059269;28;20457;-56
2022/01/14 08:25:45;;;;;;;15.17;10.87;;;;;;;;;;5062213;28;20513;-56
2022/01/14 08:28:11;;;;;;;18.17;11.87;;;;;;;;;;5074913;28;20480;-56
2022/01/14 08:30:37;;;;;;;16.10;11.33;;;;;;;;;;5070908;28;20501;-56
2022/01/14 08:33:03;;;;;;;18.87;11.57;;;;;;;;;;5068596;28;21078;-58
2022/01/14 08:35:29;;;;;;;17.90;11.53;;;;;;;;;;5076672;28;20242;-56
2022/01/14 08:37:56;;;;;;;21.17;12.13;;;;;;;;;;5077548;28;20916;-57
2022/01/14 08:40:22;;;;;;;18.57;11.93;;;;;;;;;;5056843;28;20414;-56
2022/01/14 08:42:54;;;;;;;15.40;11.57;;;;;;;;;;5069080;28;20992;-57
2022/01/14 08:45:21;;;;;;;15.70;11.67;;;;;;;;;;5065770;28;20454;-57
2022/01/14 08:47:47;;;;;;;18.27;12.07;;;;;;;;;;5067583;28;20427;-56
2022/01/14 08:50:13;;;;;;;18.57;11.50;;;;;;;;;;5074573;28;20454;-57
2022/01/14 08:52:39;;;;;;;15.77;11.87;;;;;;;;;;5055555;28;20961;-57
2022/01/14 08:55:06;;;;;;;17.07;11.97;;;;;;;;;;5052637;28;20993;-57
2022/01/14 08:57:32;;;;;;;18.43;11.70;;;;;;;;;;5084635;28;20445;-57
2022/01/14 08:59:58;;;;;;;15.13;11.63;;;;;;;;;;5085684;28;20770;-58
2022/01/14 09:02:24;;;;;;;16.37;11.77;;;;;;;;;;5085279;28;20487;-57
2022/01/14 09:04:50;;;;;;;18.00;11.90;;;;;;;;;;5083342;28;20426;-56
2022/01/14 09:07:16;;;;;;;22.80;13.03;;;;;;;;;;5074194;28;20729;-57
2022/01/14 09:09:42;;;;;;;18.00;12.43;;;;;;;;;;5065630;28;20798;-57
2022/01/14 09:12:11;;;;;;;20.43;12.50;;;;;;;;;;5083240;28;20722;-59
2022/01/14 09:14:37;;;;;;;23.27;13.33;;;;;;;;;;5086511;28;20444;-56
2022/01/14 09:17:03;;;;;;;20.50;13.93;;;;;;;;;;5087280;28;20418;-59
2022/01/14 09:19:29;;;;;;;20.37;13.03;;;;;;;;;;5090151;28;20759;-57
2022/01/14 09:21:58;;;;;;;22.77;14.53;;;;;;;;;;5089409;28;20437;-55
2022/01/14 09:24:24;;;;;;;19.37;12.90;;;;;;;;;;5072292;28;20520;-58
2022/01/14 09:26:50;;;;;;;21.33;13.87;;;;;;;;;;5087694;28;21782;-57
2022/01/14 09:29:16;;;;;;;21.40;14.33;;;;;;;;;;5089082;28;20195;-56
2022/01/14 09:31:42;;;;;;;20.67;14.17;;;;;;;;;;5080179;28;20467;-57
2022/01/14 09:34:08;;;;;;;20.03;13.97;;;;;;;;;;5081459;28;21263;-57
2022/01/14 09:36:34;;;;;;;23.97;14.90;;;;;;;;;;5080772;28;20178;-56
2022/01/14 09:39:00;;;;;;;19.87;14.13;;;;;;;;;;5088950;28;20630;-57
2022/01/14 09:41:26;;;;;;;34.07;19.07;;;;;;;;;;5088898;28;20500;-53
2022/01/14 09:43:53;;;;;;;39.83;20.17;;;;;;;;;;5083353;28;20943;-53
2022/01/14 09:46:19;;;;;;;40.93;21.60;;;;;;;;;;5085398;28;20433;-53
2022/01/14 09:48:47;;;;;;;44.53;22.50;;;;;;;;;;5081229;28;20448;-53
2022/01/14 09:51:13;;;;;;;50.77;22.70;;;;;;;;;;5086809;28;20935;-53
2022/01/14 09:53:40;;;;;;;39.10;23.23;;;;;;;;;;5088910;28;20429;-54
2022/01/14 09:56:06;;;;;;;38.83;20.67;;;;;;;;;;5063679;28;20828;-54
2022/01/14 09:58:36;;;;;;;43.30;20.00;;;;;;;;;;5071574;28;20827;-53
2022/01/14 10:01:06;;;;;;;46.13;21.07;;;;;;;;;;5073771;28;20829;-54
2022/01/14 10:03:33;;;;;;;43.83;21.43;;;;;;;;;;5053069;28;20420;-54
2022/01/14 10:05:59;;;;;;;44.00;21.63;;;;;;;;;;5069940;28;20933;-54
2022/01/14 10:08:26;;;;;;;43.43;21.03;;;;;;;;;;5066893;28;20472;-55
2022/01/14 10:10:55;;;;;;;40.37;22.33;;;;;;;;;;5070687;28;20204;-54
2022/01/14 10:13:25;;;;;;;39.40;20.97;;;;;;;;;;5065736;28;20419;-56
2022/01/14 10:15:52;;;;;;;45.07;21.43;;;;;;;;;;5060462;28;20917;-54
2022/01/14 10:18:20;;;;;;;39.33;19.80;;;;;;;;;;5050696;28;20415;-56
2022/01/14 10:20:47;;;;;;;36.03;20.23;;;;;;;;;;5080687;28;20422;-55
2022/01/14 10:23:15;;;;;;;39.73;20.07;;;;;;;;;;5068555;28;20695;-55
2022/01/14 10:25:41;;;;;;;39.40;22.17;;;;;;;;;;5057884;28;20425;-56
2022/01/14 10:28:21;;;;;;;37.03;20.27;;;;;;;;;;5064629;28;20580;-57
2022/01/14 10:30:48;;;;;;;36.80;19.37;;;;;;;;;;5066565;28;21034;-54
2022/01/14 10:33:14;;;;;;;40.10;20.53;;;;;;;;;;5068552;28;20419;-57
2022/01/14 10:35:46;;;;;;;35.23;19.40;;;;;;;;;;5060797;28;20445;-56
2022/01/14 10:38:16;;;;;;;40.37;19.83;;;;;;;;;;5049902;28;20506;-56
2022/01/14 10:40:49;;;;;;;38.20;19.57;;;;;;;;;;5064722;28;20420;-56
2022/01/14 10:43:17;;;;;;;32.43;18.13;;;;;;;;;;5068342;28;20422;-56
2022/01/14 10:45:45;;;;;;;37.57;19.83;;;;;;;;;;5066048;28;20422;-54
2022/01/14 10:48:13;;;;;;;49.27;20.23;;;;;;;;;;5067583;28;20463;-56
2022/01/14 10:50:39;;;;;;;34.23;18.40;;;;;;;;;;5067145;28;20459;-55
2022/01/14 10:53:11;;;;;;;37.93;18.53;;;;;;;;;;5068122;28;20789;-55
2022/01/14 10:55:38;;;;;;;31.00;18.17;;;;;;;;;;5059864;28;20780;-56
2022/01/14 10:58:07;;;;;;;35.57;20.10;;;;;;;;;;5077624;28;20439;-55
2022/01/14 11:00:41;;;;;;;37.57;19.60;;;;;;;;;;5073348;28;20495;-57
2022/01/14 11:03:07;;;;;;;39.67;18.83;;;;;;;;;;5083682;28;20421;-55
2022/01/14 11:05:34;;;;;;;35.60;19.83;;;;;;;;;;5075517;28;20846;-54
2022/01/14 11:08:01;;;;;;;37.07;19.47;;;;;;;;;;5077209;28;20441;-57
2022/01/14 11:10:28;;;;;;;36.13;19.10;;;;;;;;;;5060040;28;20469;-56
2022/01/14 11:12:55;;;;;;;36.27;19.90;;;;;;;;;;5069496;28;20411;-57
2022/01/14 11:15:23;;;;;;;30.97;18.97;;;;;;;;;;5069527;28;20416;-57
2022/01/14 11:17:50;;;;;;;32.13;17.80;;;;;;;;;;5055238;28;20852;-55
2022/01/14 11:20:31;;;;;;;38.57;18.67;;;;;;;;;;5077686;28;21150;-56
2022/01/14 11:23:16;;;;;;;30.70;19.50;;;;;;;;;;5076358;28;20597;-57
2022/01/14 11:25:45;;;;;;;33.57;18.93;;;;;;;;;;5079990;28;20456;-53
2022/01/14 11:28:12;;;;;;;35.47;18.83;;;;;;;;;;5076988;28;20518;-55
2022/01/14 11:30:39;;;;;;;37.10;20.80;;;;;;;;;;5071034;28;20494;-54
2022/01/14 11:33:06;;;;;;;44.20;20.50;;;;;;;;;;5072406;28;20479;-54
2022/01/14 11:35:32;;;;;;;39.53;21.97;;;;;;;;;;5075919;28;20453;-54
2022/01/14 11:37:59;;;;;;;37.03;20.60;;;;;;;;;;5073385;28;21007;-55
2022/01/14 11:40:25;;;;;;;42.73;21.07;;;;;;;;;;5077400;28;20925;-55
2022/01/14 11:42:58;;;;;;;39.90;19.30;;;;;;;;;;5058832;28;20774;-56
2022/01/14 11:45:40;;;;;;;38.43;21.33;;;;;;;;;;5076729;28;20440;-56
2022/01/14 11:48:07;;;;;;;38.70;20.03;;;;;;;;;;5067013;28;20917;-55
2022/01/14 11:50:33;;;;;;;40.47;19.10;;;;;;;;;;5074735;28;20455;-56
2022/01/14 11:52:59;;;;;;;37.00;19.77;;;;;;;;;;5061073;28;20433;-55
2022/01/14 11:55:31;;;;;;;40.20;21.40;;;;;;;;;;5076152;28;20226;-56
2022/01/14 11:57:59;;;;;;;36.33;18.83;;;;;;;;;;5082035;28;20245;-55
2022/01/14 12:00:29;;;;;;;35.20;19.57;;;;;;;;;;5061937;28;20426;-55
2022/01/14 12:03:17;;;;;;;35.00;18.93;;;;;;;;;;5069064;28;20478;-55
2022/01/14 12:05:55;;;;;;;36.60;18.73;;;;;;;;;;5071629;28;20509;-56
2022/01/14 12:08:28;;;;;;;34.30;20.17;;;;;;;;;;5075010;28;20495;-56
2022/01/14 12:10:56;;;;;;;35.70;19.67;;;;;;;;;;5087536;28;20465;-56
2022/01/14 12:16:07;;;;;;;31.83;19.13;;;;;;;;;;5086979;28;20512;-56
2022/01/14 12:18:52;;;;;;;35.83;19.27;;;;;;;;;;5086914;28;20172;-55
2022/01/14 12:21:18;;;;;;;30.07;19.10;;;;;;;;;;5087685;28;20938;-55
2022/01/14 12:23:44;;;;;;;33.40;19.13;;;;;;;;;;5085981;28;20907;-55
2022/01/14 12:26:17;;;;;;;38.03;19.73;;;;;;;;;;5087128;28;20417;-55
2022/01/14 12:28:44;;;;;;;34.90;19.47;;;;;;;;;;5083817;28;20180;-55
2022/01/14 12:31:10;;;;;;;41.37;20.87;;;;;;;;;;5065323;28;20462;-55
2022/01/14 12:33:42;;;;;;;33.77;19.87;;;;;;;;;;5086815;28;20410;-54
2022/01/14 12:36:13;;;;;;;31.00;18.43;;;;;;;;;;5087437;28;20414;-56
2022/01/14 12:38:40;;;;;;;34.87;18.93;;;;;;;;;;5068328;28;20920;-55
2022/01/14 12:41:14;;;;;;;35.37;19.23;;;;;;;;;;5080230;28;20424;-55
2022/01/14 12:43:47;;;;;;;37.33;20.13;;;;;;;;;;5081618;28;20473;-55
2022/01/14 12:46:34;;;;;;;36.63;19.30;;;;;;;;;;5086794;28;20864;-55
2022/01/14 12:49:02;;;;;;;34.17;18.67;;;;;;;;;;5076228;28;20449;-55
2022/01/14 12:51:29;;;;;;;36.90;18.83;;;;;;;;;;5088951;28;20414;-57
2022/01/14 12:53:59;;;;;;;34.20;18.27;;;;;;;;;;5089469;28;20425;-54
2022/01/14 12:56:29;;;;;;;36.87;19.07;;;;;;;;;;5085327;28;20514;-56
2022/01/14 12:59:05;;;;;;;40.53;19.93;;;;;;;;;;5075081;28;20429;-56
2022/01/14 13:01:31;;;;;;;40.57;19.43;;;;;;;;;;5089885;28;20413;-57
2022/01/14 13:03:58;;;;;;;36.77;18.77;;;;;;;;;;5091496;28;20405;-56
2022/01/14 13:06:24;;;;;;;32.03;18.27;;;;;;;;;;5091719;28;20415;-56
2022/01/14 13:08:57;;;;;;;34.07;18.77;;;;;;;;;;5088318;28;20434;-55
2022/01/14 13:11:23;;;;;;;38.93;19.77;;;;;;;;;;5087469;28;20723;-55
2022/01/14 13:14:00;;;;;;;37.07;19.80;;;;;;;;;;5090013;28;20425;-56
2022/01/14 13:16:26;;;;;;;39.20;20.13;;;;;;;;;;5086723;28;20529;-55
2022/01/14 13:18:54;;;;;;;35.63;19.37;;;;;;;;;;5086012;28;20493;-56
2022/01/14 13:21:20;;;;;;;39.00;18.77;;;;;;;;;;5068500;28;20636;-55
2022/01/14 13:23:46;;;;;;;43.23;19.80;;;;;;;;;;5088183;28;20434;-56
2022/01/14 13:26:12;;;;;;;40.10;20.03;;;;;;;;;;5089161;28;20211;-56
2022/01/14 13:28:38;;;;;;;36.27;19.10;;;;;;;;;;5081093;28;20469;-57
2022/01/14 13:31:09;;;;;;;35.83;18.77;;;;;;;;;;5084918;28;20194;-56
2022/01/14 13:33:37;;;;;;;38.60;19.63;;;;;;;;;;5080787;28;20188;-56
2022/01/14 13:36:03;;;;;;;39.23;18.97;;;;;;;;;;5087411;28;20987;-57
2022/01/14 13:38:29;;;;;;;34.23;18.67;;;;;;;;;;5085108;28;20505;-56
2022/01/14 13:40:57;;;;;;;39.70;20.50;;;;;;;;;;5086270;28;20520;-57
2022/01/14 13:43:27;;;;;;;29.67;17.70;;;;;;;;;;5086624;28;20183;-56
2022/01/14 13:46:05;;;;;;;38.87;20.37;;;;;;;;;;5066501;28;20724;-57
2022/01/14 13:48:39;;;;;;;35.03;18.43;;;;;;;;;;5083544;28;20421;-56
2022/01/14 13:51:07;;;;;;;35.90;18.93;;;;;;;;;;5086642;28;20472;-56
2022/01/14 13:53:37;;;;;;;44.13;18.90;;;;;;;;;;5083244;28;20454;-56
2022/01/14 13:56:05;;;;;;;38.27;20.27;;;;;;;;;;5078226;28;20932;-56
2022/01/14 13:58:31;;;;;;;43.27;19.43;;;;;;;;;;5066208;28;20491;-55
2022/01/14 14:01:02;;;;;;;41.50;20.33;;;;;;;;;;5068175;28;20427;-56
2022/01/14 14:06:05;;;;;;;40.23;18.60;;;;;;;;;;5068269;28;20555;-56
2022/01/14 14:16:42;;;;;;;37.43;18.03;;;;;;;;;;5065131;28;20413;-56
2022/01/14 14:19:08;;;;;;;40.70;20.50;;;;;;;;;;5068251;28;20418;-55
2022/01/14 14:21:34;;;;;;;38.90;20.53;;;;;;;;;;5066254;28;20176;-57
2022/01/14 14:24:02;;;;;;;45.00;19.17;;;;;;;;;;5064811;28;20415;-56
2022/01/14 14:26:29;;;;;;;37.43;19.63;;;;;;;;;;5060309;28;20437;-56
2022/01/14 14:28:57;;;;;;;38.80;20.20;;;;;;;;;;5048388;28;20529;-57
2022/01/14 14:31:30;;;;;;;41.17;20.53;;;;;;;;;;5062560;28;20488;-56
2022/01/14 14:33:56;;;;;;;43.80;20.27;;;;;;;;;;5066672;28;20427;-56
2022/01/14 14:36:26;;;;;;;41.33;20.60;;;;;;;;;;5064081;28;20184;-55
2022/01/14 14:38:52;;;;;;;37.53;18.43;;;;;;;;;;5066160;28;20419;-55
2022/01/14 14:41:18;;;;;;;40.40;19.93;;;;;;;;;;5067847;28;20828;-55
2022/01/14 14:43:44;;;;;;;42.27;20.37;;;;;;;;;;5067266;28;20939;-55
2022/01/14 14:46:10;;;;;;;37.63;19.77;;;;;;;;;;5066999;28;20422;-57
2022/01/14 14:48:37;;;;;;;35.13;19.07;;;;;;;;;;5067047;28;20195;-56
2022/01/14 14:51:04;;;;;;;40.73;20.57;;;;;;;;;;5067027;28;20531;-55
2022/01/14 14:53:30;;;;;;;38.27;20.13;;;;;;;;;;5067709;28;20177;-55
2022/01/14 14:55:56;;;;;;;35.80;18.77;;;;;;;;;;5062176;28;20489;-55
2022/01/14 14:58:22;;;;;;;36.37;19.13;;;;;;;;;;5055850;28;20460;-55
2022/01/14 15:00:48;;;;;;;36.87;19.63;;;;;;;;;;5060711;28;20890;-55